Jerome, Idaho
Current Conditions -  °F | °C
As of 6:53 AM on Thursday 29 Jan 2015 (Local Time) from KJER Reporting Station
Overcast Overcast  
Wind Chill: 26°   Ceiling: 1800
Heat Index: 35°   Visibility: 10mi
Dew Point: 31°   Wind: 15mph
Humidity: 85%   Direction: 60°ENE
Pressure: 30.41"   Gusts: NA
Location:  42.72°N, 114.51°W
Report Text: KJER 291353Z AUTO 06013KT 10SM OVC018 02/M01 A3041 RMK AO2 SLP321 T00171006
Loading
Personal Weather Stations






























Interactive Weather Map New forecast layout! Learn more

10-Day Weather Forecast

Advertisements
Track Severe Weather on mobile